KELN/ELN METAR and TAF weather

Enter ICAO airport designator
Station Type Date Time Source
KELN METAR 2019/02/23 01:53 UTC NOAA

KELN 230153Z AUTO 31004KT 10SM BKN044 02/M05 A2986 RMK AO2 SLP126 T00171050


Station Type Date Time Source
KELN Decoded METAR 2019/02/23 01:53 UTC NOAA

ELLENSBURG BOWERS FIELD, WA, United States (KELN) 47-02N 120-32W 519M
Feb 22, 2019 - 08:53 PM EST / 2019.02.23 0153 UTC
Wind: from the NW (310 degrees) at 5 MPH (4 KT):0
Visibility: 10 mile(s):0
Sky conditions: mostly cloudy
Temperature: 35.1 F (1.7 C)
Dew Point: 23.0 F (-5.0 C)
Relative Humidity: 61%
Pressure (altimeter): 29.86 in. Hg (1011 hPa)
ob: KELN 230153Z AUTO 31004KT 10SM BKN044 02/M05 A2986 RMK AO2 SLP126 T00171050
cycle: 2

Station Type Date Time Source
KELN TAF UTC NOAA

Error!


Example: see airport list